Time;durP1;ratioP1;P1;durP2;ratioP2;P2;SDS_P1;SDS_P2;PMS_P1;PMS_P2;Temp;Humidity;BMP_temperature;BMP_pressure;BME280_temperature;BME280_humidity;BME280_pressure;Samples;Min_cycle;Max_cycle;Signal;HPM_P1;HPM_P2
2022/01/10 00:01:56;;;;;;;31.15;15.07;;;0.80;99.90;;;;;;5112834;28;20039;-50
2022/01/10 00:04:24;;;;;;;31.40;15.63;;;0.70;99.90;;;;;;5112798;28;20052;-51
2022/01/10 00:06:50;;;;;;;26.98;14.40;;;0.60;99.90;;;;;;5112256;28;20043;-52
2022/01/10 00:09:17;;;;;;;31.05;15.38;;;0.60;99.90;;;;;;5112764;28;20048;-50
2022/01/10 00:11:44;;;;;;;30.17;14.98;;;0.60;99.90;;;;;;5112623;28;20050;-48
2022/01/10 00:14:11;;;;;;;29.95;15.55;;;0.70;99.90;;;;;;5112571;28;20545;-52
2022/01/10 00:16:38;;;;;;;30.88;15.27;;;0.60;99.90;;;;;;5112194;28;20044;-48
2022/01/10 00:19:05;;;;;;;28.48;15.35;;;0.50;99.90;;;;;;5112420;28;20123;-50
2022/01/10 00:21:32;;;;;;;30.63;16.00;;;0.50;99.90;;;;;;5112666;28;20058;-49
2022/01/10 00:23:59;;;;;;;23.00;11.48;;;0.50;99.90;;;;;;5112618;28;20408;-48
2022/01/10 00:26:26;;;;;;;27.38;14.43;;;0.50;99.90;;;;;;5112062;28;20116;-48
2022/01/10 00:28:53;;;;;;;;;;;0.60;99.90;;;;;;5112609;28;20074;-50
2022/01/10 00:31:20;;;;;;;29.73;15.48;;;0.60;99.90;;;;;;5110746;28;19926;-49
2022/01/10 00:33:47;;;;;;;20.02;10.93;;;0.70;99.90;;;;;;5112366;28;20047;-48
2022/01/10 00:36:14;;;;;;;29.08;15.27;;;0.70;99.90;;;;;;5111872;28;20401;-51
2022/01/10 00:38:41;;;;;;;29.85;14.10;;;0.80;99.90;;;;;;5112437;28;20047;-49
2022/01/10 00:41:09;;;;;;;24.77;14.25;;;0.80;99.90;;;;;;5112186;28;20051;-52
2022/01/10 00:43:40;;;;;;;31.77;14.63;;;0.60;99.90;;;;;;5112212;28;20385;-51
2022/01/10 00:46:07;;;;;;;27.65;14.13;;;0.40;99.90;;;;;;5111809;28;20044;-51
2022/01/10 00:48:34;;;;;;;26.85;15.25;;;0.40;99.90;;;;;;5112216;28;20063;-52
2022/01/10 00:51:01;;;;;;;33.40;16.33;;;0.40;99.90;;;;;;5111876;28;20040;-48
2022/01/10 00:53:28;;;;;;;35.53;16.75;;;0.40;99.90;;;;;;5112064;28;20043;-48
2022/01/10 00:55:55;;;;;;;29.98;15.90;;;0.40;99.90;;;;;;5111561;28;20462;-48
2022/01/10 00:58:22;;;;;;;29.58;14.93;;;0.40;99.90;;;;;;5112150;28;20108;-48
2022/01/10 01:00:51;;;;;;;32.78;15.77;;;0.50;99.90;;;;;;5111945;28;20040;-48
2022/01/10 01:03:18;;;;;;;28.48;15.32;;;0.50;99.90;;;;;;5110639;28;20138;-52
2022/01/10 01:05:45;;;;;;;;;;;0.50;99.90;;;;;;5111835;28;20044;-47
2022/01/10 01:08:13;;;;;;;36.13;18.35;;;0.60;99.90;;;;;;5110705;28;19965;-48
2022/01/10 01:24:03;;;;;;;27.73;14.82;;;0.60;99.90;;;;;;5116046;28;20040;-51
2022/01/10 01:26:33;;;;;;;27.45;14.73;;;0.50;99.90;;;;;;5115412;28;20118;-51
2022/01/10 01:29:00;;;;;;;36.50;15.93;;;0.60;99.90;;;;;;5115852;28;20040;-52
2022/01/10 01:31:27;;;;;;;31.85;16.38;;;0.60;99.90;;;;;;5115460;28;20469;-51
2022/01/10 01:33:54;;;;;;;28.58;16.10;;;0.70;99.90;;;;;;5114488;28;20051;-51
2022/01/10 01:36:23;;;;;;;32.13;17.15;;;0.70;99.90;;;;;;5115228;27;20078;-50
2022/01/10 01:38:53;;;;;;;33.65;17.67;;;0.70;99.90;;;;;;5114353;28;20071;-50
2022/01/10 01:43:54;;;;;;;29.40;15.43;;;0.70;99.90;;;;;;5114232;28;20500;-49
2022/01/10 01:46:22;;;;;;;28.77;16.05;;;0.70;99.90;;;;;;5115216;28;20065;-51
2022/01/10 01:48:51;;;;;;;33.55;16.52;;;0.70;99.90;;;;;;5115224;28;20069;-52
2022/01/10 01:51:23;;;;;;;32.25;16.63;;;0.70;99.90;;;;;;5114019;28;20039;-51
2022/01/10 01:53:52;;;;;;;30.98;15.88;;;0.70;99.90;;;;;;5114124;28;20044;-48
2022/01/10 01:56:20;;;;;;;28.23;15.75;;;0.70;99.90;;;;;;5113541;28;20127;-52
2022/01/10 01:58:48;;;;;;;31.42;16.05;;;0.70;99.90;;;;;;5114037;28;20043;-49
2022/01/10 02:01:16;;;;;;;;;;;0.80;99.90;;;;;;5115516;28;20450;-49
2022/01/10 02:03:44;;;;;;;24.52;12.60;;;0.80;99.90;;;;;;5113887;28;19920;-49
2022/01/10 02:06:14;;;;;;;18.33;9.68;;;0.80;99.90;;;;;;5113380;28;20071;-50
2022/01/10 02:08:42;;;;;;;19.25;9.18;;;0.90;99.90;;;;;;5115154;28;20134;-50
2022/01/10 02:11:11;;;;;;;13.95;6.68;;;0.90;99.90;;;;;;5113568;28;20093;-49
2022/01/10 02:13:38;;;;;;;10.75;6.60;;;0.90;99.90;;;;;;5113645;28;20468;-48
2022/01/10 02:16:22;;;;;;;9.70;5.20;;;0.90;99.90;;;;;;5113271;28;20507;-51
2022/01/10 02:18:50;;;;;;;9.65;4.75;;;0.90;99.90;;;;;;5113532;28;20048;-48
2022/01/10 02:21:17;;;;;;;7.28;4.50;;;0.90;99.90;;;;;;5112049;28;20496;-51
2022/01/10 02:23:44;;;;;;;7.60;4.00;;;0.90;99.90;;;;;;5113445;28;20070;-47
2022/01/10 02:26:21;;;;;;;10.65;4.95;;;0.90;99.90;;;;;;5113160;28;20062;-50
2022/01/10 02:28:48;;;;;;;9.23;4.80;;;0.90;99.90;;;;;;5113418;28;20096;-51
2022/01/10 02:31:15;;;;;;;8.32;4.45;;;0.90;99.90;;;;;;5112913;28;20040;-49
2022/01/10 02:33:42;;;;;;;8.52;4.10;;;0.90;99.90;;;;;;5113184;28;20130;-53
2022/01/10 02:36:23;;;;;;;7.55;3.78;;;0.90;99.90;;;;;;5114118;28;20389;-52
2022/01/10 02:38:53;;;;;;;7.55;3.33;;;0.90;99.90;;;;;;5114613;28;20035;-50
2022/01/10 02:41:26;;;;;;;6.65;2.97;;;0.80;99.90;;;;;;5114203;28;20040;-47
2022/01/10 02:43:55;;;;;;;5.53;3.05;;;0.80;99.90;;;;;;5113243;28;20603;-52
2022/01/10 02:46:24;;;;;;;5.65;2.00;;;0.90;99.90;;;;;;5112603;28;20562;-50
2022/01/10 02:48:52;;;;;;;4.15;2.40;;;0.90;99.90;;;;;;5113002;28;20130;-51
2022/01/10 02:51:20;;;;;;;7.47;2.55;;;0.80;99.90;;;;;;5112659;28;20040;-50
2022/01/10 02:53:48;;;;;;;7.75;3.72;;;0.80;99.90;;;;;;5112974;28;20043;-51
2022/01/10 02:56:15;;;;;;;15.93;9.55;;;0.80;99.90;;;;;;5112465;28;20043;-48
2022/01/10 02:58:42;;;;;;;;;;;0.70;99.90;;;;;;5113306;28;20050;-51
2022/01/10 03:01:09;;;;;;;6.95;2.60;;;0.70;99.90;;;;;;5112402;28;20023;-50
2022/01/10 03:03:39;;;;;;;5.28;2.33;;;0.70;99.90;;;;;;5113030;28;20032;-48
2022/01/10 03:06:06;;;;;;;2.88;1.48;;;0.70;99.90;;;;;;5113617;28;20058;-48
2022/01/10 03:08:34;;;;;;;6.30;1.90;;;0.70;99.90;;;;;;5112664;28;20131;-49
2022/01/10 03:11:04;;;;;;;2.92;1.73;;;0.60;99.90;;;;;;5112350;28;20066;-48
2022/01/10 03:13:30;;;;;;;4.25;1.30;;;0.60;99.90;;;;;;5112495;28;20040;-48
2022/01/10 03:15:57;;;;;;;3.47;1.38;;;0.70;99.90;;;;;;5113407;28;20058;-49
2022/01/10 03:18:24;;;;;;;1.85;1.20;;;0.70;99.90;;;;;;5112540;28;20043;-51
2022/01/10 03:20:51;;;;;;;3.30;1.60;;;0.70;99.90;;;;;;5112399;28;20069;-52
2022/01/10 03:23:18;;;;;;;6.20;2.10;;;0.70;99.90;;;;;;5113823;28;20449;-49
2022/01/10 03:25:45;;;;;;;5.35;2.60;;;0.70;99.90;;;;;;5111946;28;20469;-51
2022/01/10 03:28:14;;;;;;;6.05;2.70;;;0.70;99.90;;;;;;5112233;28;20051;-50
2022/01/10 03:30:42;;;;;;;5.20;3.10;;;0.70;99.90;;;;;;5112145;28;20044;-48
2022/01/10 03:33:12;;;;;;;8.55;3.97;;;0.70;99.90;;;;;;5111728;28;20046;-49
2022/01/10 03:35:39;;;;;;;11.52;5.60;;;0.70;99.90;;;;;;5111606;28;20047;-51
2022/01/10 03:38:09;;;;;;;18.65;9.75;;;0.70;99.90;;;;;;5112091;28;20606;-51
2022/01/10 03:40:37;;;;;;;29.52;13.40;;;0.70;99.90;;;;;;5111863;28;20051;-48
2022/01/10 03:43:09;;;;;;;28.05;14.85;;;0.80;99.90;;;;;;5111772;28;20507;-51
2022/01/10 03:45:36;;;;;;;27.42;15.40;;;0.80;99.90;;;;;;5112760;28;20088;-53
2022/01/10 03:48:04;;;;;;;27.80;14.77;;;0.80;99.90;;;;;;5111806;28;20703;-52
2022/01/10 03:50:31;;;;;;;12.35;7.15;;;0.80;99.90;;;;;;5111759;28;20043;-52
2022/01/10 03:52:58;;;;;;;11.23;6.57;;;0.70;99.90;;;;;;5111542;28;20065;-50
2022/01/10 03:55:25;;;;;;;17.80;7.55;;;0.60;99.90;;;;;;5111401;28;20063;-50
2022/01/10 03:57:56;;;;;;;13.38;7.38;;;0.50;99.90;;;;;;5111731;28;20438;-50
2022/01/10 04:00:23;;;;;;;14.90;7.75;;;0.30;99.90;;;;;;5111490;28;20059;-50
2022/01/10 04:02:56;;;;;;;17.10;8.35;;;0.30;99.90;;;;;;5112896;28;20082;-50
2022/01/10 04:05:27;;;;;;;;;;;0.30;99.90;;;;;;5111491;28;20494;-51
2022/01/10 04:07:55;;;;;;;18.45;7.32;;;0.40;99.90;;;;;;5111227;28;19968;-50
2022/01/10 04:10:22;;;;;;;11.10;6.70;;;0.40;99.90;;;;;;5111477;28;20120;-51
2022/01/10 04:12:49;;;;;;;10.80;5.68;;;0.40;99.90;;;;;;5111346;28;20148;-47
2022/01/10 04:15:16;;;;;;;11.77;5.47;;;0.50;99.90;;;;;;5112360;28;20046;-52
2022/01/10 04:17:44;;;;;;;14.23;5.95;;;0.50;99.90;;;;;;5111054;28;20043;-50
2022/01/10 04:20:11;;;;;;;;;;;0.50;99.90;;;;;;5111567;28;20066;-49
2022/01/10 04:22:38;;;;;;;15.15;6.68;;;0.40;99.90;;;;;;5111263;28;19919;-49
2022/01/10 04:25:06;;;;;;;15.88;7.97;;;0.40;99.90;;;;;;5110995;28;20047;-53
2022/01/10 04:27:33;;;;;;;17.13;8.65;;;0.40;99.90;;;;;;5110674;28;20039;-50
2022/01/10 04:30:01;;;;;;;17.52;9.15;;;0.40;99.90;;;;;;5111081;28;20092;-48
2022/01/10 04:32:31;;;;;;;18.00;9.27;;;0.30;99.90;;;;;;5120903;22;20067;-53
2022/01/10 04:34:58;;;;;;;26.25;9.88;;;0.40;99.90;;;;;;5097528;28;20039;-54
2022/01/10 04:37:26;;;;;;;17.85;9.00;;;0.40;99.90;;;;;;5093109;28;20042;-55
2022/01/10 04:39:53;;;;;;;16.13;7.75;;;0.40;99.90;;;;;;5112347;28;20385;-54
2022/01/10 04:42:20;;;;;;;14.30;7.65;;;0.50;99.90;;;;;;5093665;28;20047;-55
2022/01/10 04:44:49;;;;;;;14.43;7.53;;;0.50;99.90;;;;;;5089128;28;20118;-52
2022/01/10 04:47:20;;;;;;;13.52;7.20;;;0.50;99.90;;;;;;5102067;28;20609;-53
2022/01/10 04:52:23;;;;;;;15.40;6.63;;;0.60;99.90;;;;;;5093357;28;20035;-55
2022/01/10 04:54:50;;;;;;;16.27;7.78;;;0.60;99.90;;;;;;5109156;28;20036;-54
2022/01/10 04:57:17;;;;;;;16.73;8.00;;;0.60;99.90;;;;;;5093132;28;20537;-54
2022/01/10 04:59:44;;;;;;;16.75;6.95;;;0.60;99.90;;;;;;5104787;28;20040;-54
2022/01/10 05:02:12;;;;;;;14.63;6.68;;;0.60;99.90;;;;;;5111808;28;20105;-52
2022/01/10 05:04:39;;;;;;;;;;;0.60;99.90;;;;;;5112293;28;20138;-53
2022/01/10 05:07:06;;;;;;;11.40;5.18;;;0.50;99.90;;;;;;5110298;28;20311;-53
2022/01/10 05:09:34;;;;;;;10.90;4.38;;;0.50;99.90;;;;;;5093618;28;20104;-54
2022/01/10 05:12:06;;;;;;;8.93;5.38;;;0.40;99.90;;;;;;5110609;28;20039;-52
2022/01/10 05:14:34;;;;;;;12.73;6.75;;;0.30;99.90;;;;;;5093496;28;20055;-53
2022/01/10 05:17:01;;;;;;;14.52;6.40;;;0.30;99.90;;;;;;5093144;28;20104;-56
2022/01/10 05:19:28;;;;;;;16.55;8.63;;;0.30;99.90;;;;;;5093428;28;20074;-54
2022/01/10 05:21:56;;;;;;;16.05;8.43;;;0.30;99.90;;;;;;5093557;28;20127;-53
2022/01/10 05:24:24;;;;;;;9.45;4.90;;;0.30;99.90;;;;;;5093634;28;20135;-54
2022/01/10 05:26:50;;;;;;;7.43;3.42;;;0.40;99.90;;;;;;5110092;28;20093;-54
2022/01/10 05:29:21;;;;;;;13.85;7.18;;;0.40;99.90;;;;;;5093189;28;20121;-55
2022/01/10 05:31:49;;;;;;;12.95;7.93;;;0.40;99.90;;;;;;5095744;28;20040;-53
2022/01/10 05:34:35;;;;;;;17.92;9.90;;;0.40;99.90;;;;;;5091045;28;20510;-52
2022/01/10 05:37:02;;;;;;;21.55;9.80;;;0.40;99.90;;;;;;5072896;28;20044;-54
2022/01/10 05:39:29;;;;;;;14.48;8.13;;;0.50;99.90;;;;;;5072866;28;20094;-56
2022/01/10 05:41:56;;;;;;;15.75;7.80;;;0.50;99.90;;;;;;5090900;28;20039;-56
2022/01/10 05:44:24;;;;;;;11.40;6.57;;;0.60;99.90;;;;;;5072821;28;20056;-57
2022/01/10 05:46:52;;;;;;;11.95;6.28;;;0.60;99.90;;;;;;5084657;28;20142;-55
2022/01/10 05:49:25;;;;;;;10.75;5.53;;;0.60;99.90;;;;;;5093344;28;20134;-56
2022/01/10 05:51:54;;;;;;;9.18;5.35;;;0.70;99.90;;;;;;5089638;28;20050;-56
2022/01/10 05:54:29;;;;;;;9.23;4.82;;;0.60;99.90;;;;;;5093331;28;20043;-54
2022/01/10 05:56:57;;;;;;;;;;;0.60;99.90;;;;;;5111929;28;20169;-56
2022/01/10 05:59:27;;;;;;;8.88;4.05;;;0.60;99.90;;;;;;5109550;28;19923;-57
2022/01/10 06:01:55;;;;;;;9.38;3.65;;;0.70;99.90;;;;;;5113659;28;20530;-58
2022/01/10 06:04:24;;;;;;;5.82;3.20;;;0.70;99.90;;;;;;5095409;28;20039;-58
2022/01/10 06:06:52;;;;;;;;;;;0.70;99.90;;;;;;5095922;28;20043;-56
2022/01/10 06:09:19;;;;;;;4.70;2.50;;;0.60;99.90;;;;;;5096170;28;19958;-58
2022/01/10 06:11:46;;;;;;;5.30;3.00;;;0.60;99.90;;;;;;5096385;28;20478;-55
2022/01/10 06:14:15;;;;;;;12.52;6.15;;;0.70;99.90;;;;;;5096795;28;20058;-56
2022/01/10 06:16:42;;;;;;;11.25;4.35;;;0.60;99.90;;;;;;5096071;28;20518;-56
2022/01/10 06:19:10;;;;;;;9.13;4.13;;;0.60;99.90;;;;;;5096436;28;20040;-57
2022/01/10 06:21:37;;;;;;;8.75;3.05;;;0.50;99.90;;;;;;5114310;28;20067;-55
2022/01/10 06:24:04;;;;;;;5.65;2.58;;;0.60;99.90;;;;;;5114337;28;20044;-56
2022/01/10 06:26:31;;;;;;;10.07;4.80;;;0.60;99.90;;;;;;5095934;28;20043;-56
2022/01/10 06:28:58;;;;;;;6.38;3.05;;;0.60;99.90;;;;;;5095120;28;20492;-55
2022/01/10 06:31:26;;;;;;;;;;;0.60;99.90;;;;;;5094625;28;20070;-56
2022/01/10 06:34:06;;;;;;;6.32;3.67;;;0.60;99.90;;;;;;5096417;28;19963;-57
2022/01/10 06:36:34;;;;;;;9.95;4.75;;;0.60;99.90;;;;;;5095885;28;20048;-52
2022/01/10 06:39:03;;;;;;;11.43;5.25;;;0.60;99.90;;;;;;5096134;28;20101;-57
2022/01/10 06:41:30;;;;;;;14.70;6.32;;;0.60;99.90;;;;;;5096392;28;20069;-58
2022/01/10 06:43:57;;;;;;;15.90;6.90;;;0.60;99.90;;;;;;5095856;28;20075;-55
2022/01/10 06:46:24;;;;;;;13.65;5.85;;;0.60;99.90;;;;;;5095620;28;20122;-56
2022/01/10 06:48:52;;;;;;;12.98;5.57;;;0.50;99.90;;;;;;5096034;28;20104;-57
2022/01/10 06:51:21;;;;;;;9.65;3.65;;;0.50;99.90;;;;;;5112953;28;20048;-56
2022/01/10 06:53:51;;;;;;;9.45;3.22;;;0.50;99.90;;;;;;5112991;28;20048;-56
2022/01/10 06:56:17;;;;;;;8.13;4.10;;;0.50;99.90;;;;;;5095546;28;20051;-56
2022/01/10 06:58:44;;;;;;;12.70;5.80;;;0.50;99.90;;;;;;5095510;28;20055;-56
2022/01/10 07:01:19;;;;;;;12.55;5.63;;;0.50;99.90;;;;;;5095864;28;20044;-56
2022/01/10 07:03:52;;;;;;;10.25;5.80;;;0.50;99.90;;;;;;5095737;28;20050;-57
2022/01/10 07:06:22;;;;;;;15.15;7.50;;;0.50;99.90;;;;;;5095320;28;20470;-56
2022/01/10 07:08:51;;;;;;;18.23;7.72;;;0.60;99.90;;;;;;5094905;28;20040;-58
2022/01/10 07:11:25;;;;;;;18.73;8.75;;;0.70;99.90;;;;;;5095366;28;20477;-57
2022/01/10 07:13:53;;;;;;;23.75;10.65;;;0.70;99.90;;;;;;5095572;28;20054;-54
2022/01/10 07:16:21;;;;;;;19.48;10.10;;;0.70;99.90;;;;;;5095194;28;20055;-55
2022/01/10 07:18:54;;;;;;;14.43;6.75;;;0.70;99.90;;;;;;5095429;28;20410;-55
2022/01/10 07:21:29;;;;;;;11.48;5.13;;;0.70;99.90;;;;;;5095261;28;20054;-55
2022/01/10 07:23:56;;;;;;;12.00;4.22;;;0.80;99.90;;;;;;5095212;28;20134;-57
2022/01/10 07:26:23;;;;;;;7.78;3.58;;;0.80;99.90;;;;;;5113207;28;20047;-56
2022/01/10 07:28:52;;;;;;;10.63;4.32;;;0.80;99.90;;;;;;5113484;28;20067;-56
2022/01/10 07:31:19;;;;;;;6.85;3.15;;;0.80;99.90;;;;;;5113334;28;20114;-55
2022/01/10 07:33:46;;;;;;;11.20;4.47;;;0.80;99.90;;;;;;5112842;28;20097;-53
2022/01/10 07:36:12;;;;;;;9.95;4.70;;;0.90;99.90;;;;;;5112735;28;20093;-55
2022/01/10 07:38:39;;;;;;;12.07;6.18;;;0.80;99.90;;;;;;5113362;28;20039;-55
2022/01/10 07:41:07;;;;;;;14.05;7.95;;;0.80;99.90;;;;;;5113292;28;20093;-57
2022/01/10 07:43:35;;;;;;;15.65;7.18;;;0.90;99.90;;;;;;5112847;28;20096;-57
2022/01/10 07:46:04;;;;;;;14.25;7.93;;;0.90;99.90;;;;;;5093692;28;20039;-57
2022/01/10 07:48:33;;;;;;;12.50;7.20;;;1.00;99.90;;;;;;5112424;28;20078;-50
2022/01/10 07:51:00;;;;;;;8.75;3.80;;;1.00;99.90;;;;;;5112819;28;20613;-55
2022/01/10 07:53:27;;;;;;;12.70;4.75;;;1.00;99.90;;;;;;5113042;28;20043;-57
2022/01/10 07:55:58;;;;;;;11.38;5.95;;;1.00;99.90;;;;;;5112282;28;20043;-55
2022/01/10 07:58:25;;;;;;;11.85;5.75;;;0.90;99.90;;;;;;5113139;28;20046;-56
2022/01/10 08:00:51;;;;;;;7.90;4.43;;;0.90;99.90;;;;;;5112847;28;20047;-53
2022/01/10 08:03:19;;;;;;;12.43;5.65;;;0.80;99.90;;;;;;5112553;28;20408;-55
2022/01/10 08:05:46;;;;;;;14.38;4.25;;;0.80;99.90;;;;;;5112574;28;20126;-56
2022/01/10 08:08:13;;;;;;;;;;;0.90;99.90;;;;;;5113063;28;20040;-56
2022/01/10 08:10:40;;;;;;;13.00;5.75;;;1.00;99.90;;;;;;5112403;28;19920;-55
2022/01/10 08:13:07;;;;;;;17.13;6.20;;;1.00;99.90;;;;;;5112709;28;20496;-56
2022/01/10 08:15:34;;;;;;;18.17;7.30;;;1.00;99.90;;;;;;5112020;28;20097;-55
2022/01/10 08:18:01;;;;;;;15.00;6.72;;;1.00;99.90;;;;;;5112228;28;20055;-56
2022/01/10 08:20:28;;;;;;;14.60;7.75;;;1.00;99.90;;;;;;5111064;28;20048;-56
2022/01/10 08:22:55;;;;;;;12.52;6.07;;;0.90;99.90;;;;;;5112417;28;20040;-57
2022/01/10 08:25:22;;;;;;;12.55;5.97;;;1.00;99.90;;;;;;5111905;28;20054;-56
2022/01/10 08:27:50;;;;;;;15.80;6.85;;;1.00;99.90;;;;;;5112439;28;20081;-56
2022/01/10 08:30:17;;;;;;;20.67;10.02;;;1.10;99.90;;;;;;5112270;28;20070;-56
2022/01/10 08:32:46;;;;;;;;;;;1.20;99.90;;;;;;5112336;28;20051;-57
2022/01/10 08:35:13;;;;;;;16.80;7.70;;;1.10;99.90;;;;;;5111806;28;19973;-55
2022/01/10 08:37:40;;;;;;;18.00;8.35;;;1.10;99.90;;;;;;5112189;28;20557;-57
2022/01/10 08:40:07;;;;;;;16.38;8.45;;;1.10;99.90;;;;;;5112115;28;20408;-58
2022/01/10 08:42:34;;;;;;;;;;;1.10;99.90;;;;;;5112529;28;20092;-56
2022/01/10 08:45:01;;;;;;;24.73;9.00;;;1.00;99.90;;;;;;5112055;28;19920;-54
2022/01/10 08:47:28;;;;;;;20.00;10.27;;;1.00;99.90;;;;;;5111453;28;20058;-53
2022/01/10 08:49:55;;;;;;;19.20;10.18;;;1.00;99.90;;;;;;5112312;28;20043;-56
2022/01/10 08:52:22;;;;;;;21.33;9.82;;;1.00;99.90;;;;;;5111993;28;20093;-54
2022/01/10 08:54:49;;;;;;;18.88;9.50;;;1.00;99.90;;;;;;5111924;28;20040;-56
2022/01/10 08:57:17;;;;;;;17.80;8.57;;;1.20;99.90;;;;;;5111402;28;20105;-52
2022/01/10 08:59:45;;;;;;;25.15;11.48;;;1.30;99.90;;;;;;5111889;28;20117;-56
2022/01/10 09:02:13;;;;;;;29.40;14.65;;;1.40;99.90;;;;;;5111755;28;20147;-54
2022/01/10 09:04:40;;;;;;;29.58;14.18;;;1.50;99.90;;;;;;5111899;28;20518;-53
2022/01/10 09:07:08;;;;;;;29.55;12.68;;;1.50;99.90;;;;;;5111288;28;20097;-55
2022/01/10 09:09:36;;;;;;;;;;;1.50;99.90;;;;;;5112245;28;20063;-55
2022/01/10 09:12:04;;;;;;;23.23;9.33;;;1.60;99.90;;;;;;5111736;28;20380;-57
2022/01/10 09:14:30;;;;;;;26.10;11.77;;;1.60;99.90;;;;;;5111795;28;20326;-57
2022/01/10 09:16:57;;;;;;;20.42;8.50;;;1.60;99.90;;;;;;5111491;28;20070;-53
2022/01/10 09:19:24;;;;;;;20.75;9.60;;;1.70;99.90;;;;;;5111587;28;20051;-53
2022/01/10 09:21:51;;;;;;;18.30;9.27;;;1.70;99.90;;;;;;5111661;28;20043;-53
2022/01/10 09:24:18;;;;;;;26.83;10.07;;;1.70;99.90;;;;;;5111675;28;20488;-55
2022/01/10 09:26:45;;;;;;;15.85;7.95;;;1.80;99.90;;;;;;5111205;28;20043;-57
2022/01/10 09:29:11;;;;;;;23.23;11.50;;;1.90;99.90;;;;;;5111802;28;20441;-54
2022/01/10 09:31:38;;;;;;;20.55;11.32;;;1.90;99.90;;;;;;5113972;28;20492;-54
2022/01/10 09:34:05;;;;;;;28.25;12.27;;;2.00;99.90;;;;;;5115479;28;20040;-55
2022/01/10 09:36:34;;;;;;;22.00;11.50;;;2.00;99.90;;;;;;5115312;28;20131;-54
2022/01/10 09:39:02;;;;;;;30.75;14.60;;;2.00;99.90;;;;;;5115612;28;20043;-54
2022/01/10 09:41:29;;;;;;;31.98;16.48;;;2.10;99.90;;;;;;5115179;28;20071;-55
2022/01/10 09:44:00;;;;;;;33.95;15.75;;;2.30;99.90;;;;;;5115397;28;20044;-55
2022/01/10 09:46:29;;;;;;;36.40;17.98;;;2.40;99.90;;;;;;5115416;28;20039;-54
2022/01/10 09:49:01;;;;;;;39.10;16.55;;;2.40;99.90;;;;;;5115496;28;20105;-53
2022/01/10 09:51:29;;;;;;;33.55;16.40;;;2.40;99.90;;;;;;5115395;28;20130;-56
2022/01/10 09:54:01;;;;;;;27.85;14.05;;;2.40;99.90;;;;;;5115158;28;20455;-56
2022/01/10 09:56:29;;;;;;;24.17;11.25;;;2.40;99.90;;;;;;5114885;28;20044;-55
2022/01/10 09:59:00;;;;;;;22.70;10.82;;;2.30;99.90;;;;;;5115245;28;20093;-53
2022/01/10 10:01:30;;;;;;;16.10;8.88;;;2.40;99.90;;;;;;5115115;28;20097;-56
2022/01/10 10:04:02;;;;;;;22.25;9.27;;;2.50;99.90;;;;;;5115037;28;20039;-54
2022/01/10 10:06:31;;;;;;;26.25;13.05;;;2.50;99.90;;;;;;5114676;28;20167;-55
2022/01/10 10:09:00;;;;;;;30.35;13.10;;;2.50;99.90;;;;;;5114949;28;20036;-56
2022/01/10 10:11:48;;;;;;;29.50;14.77;;;2.40;99.90;;;;;;5114958;28;20170;-57
2022/01/10 10:14:21;;;;;;;31.83;13.98;;;2.60;99.90;;;;;;5115072;28;20405;-56
2022/01/10 10:16:51;;;;;;;30.15;13.52;;;2.80;99.90;;;;;;5114275;28;20114;-57
2022/01/10 10:19:36;;;;;;;33.00;13.90;;;3.00;99.90;;;;;;5115033;28;20463;-55
2022/01/10 10:22:03;;;;;;;25.85;12.30;;;3.00;99.90;;;;;;5114731;28;20047;-56
2022/01/10 10:24:30;;;;;;;27.17;12.77;;;3.10;99.90;;;;;;5114683;28;20085;-55
2022/01/10 10:26:58;;;;;;;27.65;13.80;;;3.20;99.90;;;;;;5114319;28;20050;-53
2022/01/10 10:29:27;;;;;;;28.77;13.80;;;3.20;99.90;;;;;;5114457;28;20043;-55
2022/01/10 10:31:56;;;;;;;28.98;14.82;;;3.30;99.90;;;;;;5129578;22;20047;-52
2022/01/10 10:34:27;;;;;;;35.08;15.32;;;3.30;99.90;;;;;;5114053;28;20039;-52
2022/01/10 10:37:07;;;;;;;31.58;13.20;;;3.40;99.90;;;;;;5113605;28;20049;-49
2022/01/10 10:39:42;;;;;;;30.70;15.63;;;3.50;99.90;;;;;;5114366;28;20126;-52
2022/01/10 10:42:14;;;;;;;32.92;14.70;;;3.50;99.90;;;;;;5113598;28;20490;-51
2022/01/10 10:44:42;;;;;;;29.20;14.40;;;3.60;99.90;;;;;;5118743;27;20120;-51
2022/01/10 10:47:12;;;;;;;28.27;13.73;;;3.80;99.90;;;;;;5113835;28;20036;-49
2022/01/10 10:49:44;;;;;;;30.25;14.68;;;3.80;99.90;;;;;;5114020;28;20067;-49
2022/01/10 10:52:12;;;;;;;28.60;14.98;;;3.90;99.90;;;;;;5113998;28;20085;-51
2022/01/10 10:54:40;;;;;;;29.17;13.65;;;4.10;99.90;;;;;;5114239;28;20080;-49
2022/01/10 10:57:10;;;;;;;25.85;13.70;;;4.10;99.90;;;;;;5113674;28;20043;-52
2022/01/10 10:59:43;;;;;;;27.13;13.70;;;4.10;99.90;;;;;;5114199;28;20130;-50
2022/01/10 11:02:11;;;;;;;24.02;12.40;;;4.00;99.90;;;;;;5113979;28;20040;-49
2022/01/10 11:04:40;;;;;;;;;;;3.90;99.90;;;;;;5113929;28;20048;-52
2022/01/10 11:07:07;;;;;;;23.92;11.25;;;3.80;99.90;;;;;;5113542;28;19997;-49
2022/01/10 11:09:55;;;;;;;35.03;11.75;;;3.60;99.90;;;;;;5114179;28;20054;-52
2022/01/10 11:12:23;;;;;;;26.08;10.95;;;3.50;99.90;;;;;;5113817;28;20487;-51
2022/01/10 11:14:56;;;;;;;29.17;10.30;;;3.40;99.90;;;;;;5113400;28;20499;-49
2022/01/10 11:17:23;;;;;;;21.45;10.65;;;3.40;99.90;;;;;;5113599;28;20454;-53
2022/01/10 11:20:09;;;;;;;24.85;11.10;;;3.30;99.90;;;;;;5113673;28;20039;-49
2022/01/10 11:22:41;;;;;;;25.90;11.48;;;3.30;99.90;;;;;;5113390;28;20044;-50
2022/01/10 11:25:31;;;;;;;30.38;12.13;;;3.20;99.90;;;;;;5113245;28;20518;-49
2022/01/10 11:28:02;;;;;;;26.80;11.43;;;3.10;99.90;;;;;;5113537;28;20500;-50
2022/01/10 11:30:36;;;;;;;27.58;12.07;;;3.10;99.90;;;;;;5113550;28;20047;-48
2022/01/10 11:33:15;;;;;;;26.33;13.48;;;3.00;99.90;;;;;;5113382;28;20639;-53
2022/01/10 11:35:52;;;;;;;22.33;11.85;;;2.90;99.90;;;;;;5113047;28;20051;-54
2022/01/10 11:38:23;;;;;;;28.10;12.15;;;2.80;99.90;;;;;;5113272;28;20063;-53
2022/01/10 11:40:53;;;;;;;25.25;11.60;;;2.60;99.90;;;;;;5113289;28;20036;-50
2022/01/10 11:43:36;;;;;;;24.20;12.85;;;2.60;99.90;;;;;;5112832;28;20495;-50
2022/01/10 11:46:32;;;;;;;26.85;12.38;;;2.50;99.90;;;;;;5112724;28;20043;-49
2022/01/10 11:49:09;;;;;;;28.08;12.45;;;2.40;99.90;;;;;;5113064;28;20492;-50
2022/01/10 11:52:06;;;;;;;32.83;15.07;;;2.50;99.90;;;;;;5113087;28;20411;-49
2022/01/10 11:54:41;;;;;;;30.13;16.17;;;2.70;99.90;;;;;;5110611;28;20079;-49
2022/01/10 11:57:15;;;;;;;38.05;18.67;;;2.90;99.90;;;;;;5112333;28;20066;-53
2022/01/10 11:59:45;;;;;;;33.67;16.25;;;3.10;99.90;;;;;;5113040;28;20500;-50
2022/01/10 12:02:18;;;;;;;36.72;15.70;;;3.30;99.90;;;;;;5112847;28;20044;-50
2022/01/10 12:04:58;;;;;;;33.28;15.25;;;3.30;99.90;;;;;;5112647;28;20404;-50
2022/01/10 12:07:27;;;;;;;34.75;15.45;;;3.40;99.90;;;;;;5112273;28;20468;-49
2022/01/10 12:10:08;;;;;;;30.75;15.70;;;3.40;99.90;;;;;;5112615;28;20048;-53
2022/01/10 12:12:41;;;;;;;28.40;13.75;;;3.40;99.90;;;;;;5112559;28;20043;-50
2022/01/10 12:15:08;;;;;;;22.20;11.68;;;3.30;99.90;;;;;;5112705;28;20039;-49
2022/01/10 12:17:37;;;;;;;;;;;3.30;99.90;;;;;;5112454;28;20040;-51
2022/01/10 12:20:08;;;;;;;22.85;11.15;;;3.20;99.90;;;;;;5112637;28;20381;-54
2022/01/10 12:22:35;;;;;;;19.77;9.80;;;3.20;99.90;;;;;;5112392;28;20530;-49
2022/01/10 12:25:02;;;;;;;27.27;13.77;;;3.10;99.90;;;;;;5112312;28;20131;-49
2022/01/10 12:27:29;;;;;;;30.63;14.02;;;3.20;99.90;;;;;;5111994;28;20048;-51
2022/01/10 12:29:56;;;;;;;;;;;3.30;99.90;;;;;;5112664;28;20067;-50
2022/01/10 12:32:23;;;;;;;26.17;12.32;;;3.40;99.90;;;;;;5112140;28;20401;-50
2022/01/10 12:34:52;;;;;;;27.85;13.57;;;3.40;99.90;;;;;;5112213;28;20075;-51
2022/01/10 12:37:19;;;;;;;23.48;12.23;;;3.50;99.90;;;;;;5111966;28;20043;-50
2022/01/10 12:39:48;;;;;;;25.15;12.23;;;3.40;99.90;;;;;;5112472;28;20400;-49
2022/01/10 12:42:15;;;;;;;24.98;12.65;;;3.40;99.90;;;;;;5112037;28;20050;-53
2022/01/10 12:44:42;;;;;;;23.58;11.57;;;3.40;99.90;;;;;;5119560;27;20031;-50
2022/01/10 12:47:08;;;;;;;23.00;11.07;;;3.40;99.90;;;;;;5123282;27;20035;-49
2022/01/10 12:49:36;;;;;;;18.05;9.73;;;3.40;99.90;;;;;;5125535;27;20089;-49
2022/01/10 12:52:04;;;;;;;24.95;12.68;;;3.30;99.90;;;;;;5120428;27;20114;-50
2022/01/10 12:54:31;;;;;;;26.17;12.10;;;3.40;99.90;;;;;;5112008;28;20495;-50
2022/01/10 12:57:00;;;;;;;23.67;12.32;;;3.30;99.90;;;;;;5111528;28;20043;-51
2022/01/10 12:59:30;;;;;;;26.60;12.80;;;3.30;99.90;;;;;;5111693;28;20047;-49
2022/01/10 13:01:59;;;;;;;31.38;13.95;;;3.30;99.90;;;;;;5111866;28;20043;-50
2022/01/10 13:04:34;;;;;;;28.88;13.48;;;3.20;99.90;;;;;;5117489;28;20582;-50
2022/01/10 13:07:04;;;;;;;35.42;14.27;;;3.20;99.90;;;;;;5123262;27;20051;-49
2022/01/10 13:09:51;;;;;;;30.55;14.55;;;3.20;99.90;;;;;;5132638;28;20092;-50
2022/01/10 13:12:30;;;;;;;27.45;13.13;;;3.10;99.90;;;;;;5132043;28;20067;-51
2022/01/10 13:15:11;;;;;;;25.67;13.27;;;3.20;99.90;;;;;;5132374;28;20095;-49
2022/01/10 13:17:40;;;;;;;25.45;12.80;;;3.30;99.90;;;;;;5132405;28;20047;-49